Main page
METAR-TAF:

METAR-TAF

Airports :

Šiauliai International Airport

Šiauliai, Lithuania

latitude: 55-53-38N, longitude: 023-23-42E, elevation: 135 m

Current weather observation

The report was made 38 minutes ago, at 03:20 UTC
Wind 4 kt from the East
Temperature 20°C
Humidity 88%
Pressure 1015 hPa
Visibility 10 km or more
no clouds below 1500 m and no cumulonimbus

METAR: EYSA 150320Z 10004KT CAVOK 20/18 Q1015 NOSIG

Time: 06:58 (03:58 UTC)

Forecast

The report was made 1 hour and 58 minutes ago, at 02:00 UTC
Forecast valid from 15 at 03 UTC to 15 at 12 UTC
Wind 6 kt from the East
Visibility: 9000 m
Temporary
from 15 at 08 UTC to 15 at 12 UTC
Wind 16 kt from the East/Southeast
Scattered clouds at a height of 3500 ft, Cumulonimbus.

TAF: EYSA 150200Z 1503/1512 10006KT 9000 NSC TEMPO 1508/1512 11016KT SCT035CB

Weather observations and forecasts of more than 4000 airports (METAR and TAF reports).

The available stations are represented by yellow and red dots on the map.

Hover mouse over dot to see the name of the station.

Then click to see weather observations and forecasts.

To change the map : click on the green buttons with a black cross to zoom in, on the green button with a dash to zoom out, or on the green arrows for adjacent maps.


METAR-TAF: